LIMW/AOT METAR and TAF weather

Enter ICAO airport designator
Station Type Date Time Source
LIMW METAR 2019/12/07 14:20 UTC NOAA

LIMW 071420Z AUTO VRB02KT 9999 NCD 02/00 Q1017


Station Type Date Time Source
LIMW Decoded METAR 2019/12/07 14:20 UTC NOAA

Station name not available
Dec 07, 2019 - 09:20 AM EST / 2019.12.07 1420 UTC
Wind: Variable at 2 MPH (2 KT):0
Visibility: greater than 7 mile(s):0
Temperature: 35 F (2 C)
Dew Point: 32 F (0 C)
Relative Humidity: 86%
Pressure (altimeter): 30.03 in. Hg (1017 hPa)
ob: LIMW 071420Z AUTO VRB02KT 9999 NCD 02/00 Q1017
cycle: 14

Station Type Date Time Source
LIMW TAF UTC NOAA

Error!

Example: see airport list